sensor_id;sensor_type;location;lat;lon;timestamp;P1;durP1;ratioP1;P2;durP2;ratioP2
9665;SDS011;4871;52.004;5.924;2023-12-04T00:00:00;15.60;;;10.20;;
9665;SDS011;4871;52.004;5.924;2023-12-04T00:01:00;15.60;;;10.20;;
9665;SDS011;4871;52.004;5.924;2023-12-04T00:02:00;15.60;;;10.20;;
9665;SDS011;4871;52.004;5.924;2023-12-04T00:03:00;15.60;;;10.20;;
9665;SDS011;4871;52.004;5.924;2023-12-04T00:04:00;15.60;;;10.20;;
9665;SDS011;4871;52.004;5.924;2023-12-04T00:05:00;15.60;;;10.20;;
9665;SDS011;4871;52.004;5.924;2023-12-04T00:06:00;15.60;;;10.20;;
9665;SDS011;4871;52.004;5.924;2023-12-04T00:07:00;15.60;;;10.20;;
9665;SDS011;4871;52.004;5.924;2023-12-04T00:08:00;15.60;;;10.20;;
9665;SDS011;4871;52.004;5.924;2023-12-04T00:09:00;15.60;;;10.20;;
9665;SDS011;4871;52.004;5.924;2023-12-04T00:10:00;15.60;;;10.20;;
9665;SDS011;4871;52.004;5.924;2023-12-04T00:11:00;15.60;;;10.20;;
9665;SDS011;4871;52.004;5.924;2023-12-04T00:12:00;15.60;;;10.20;;
9665;SDS011;4871;52.004;5.924;2023-12-04T00:13:00;15.60;;;10.20;;
9665;SDS011;4871;52.004;5.924;2023-12-04T00:14:00;15.60;;;10.20;;
9665;SDS011;4871;52.004;5.924;2023-12-04T00:15:00;16.40;;;9.90;;
9665;SDS011;4871;52.004;5.924;2023-12-04T00:16:00;16.40;;;9.90;;
9665;SDS011;4871;52.004;5.924;2023-12-04T00:17:00;16.40;;;9.90;;
9665;SDS011;4871;52.004;5.924;2023-12-04T00:18:00;16.40;;;9.90;;
9665;SDS011;4871;52.004;5.924;2023-12-04T00:19:00;16.40;;;9.90;;
9665;SDS011;4871;52.004;5.924;2023-12-04T00:20:00;16.40;;;9.90;;
9665;SDS011;4871;52.004;5.924;2023-12-04T00:21:00;16.40;;;9.90;;
9665;SDS011;4871;52.004;5.924;2023-12-04T00:22:00;16.40;;;9.90;;
9665;SDS011;4871;52.004;5.924;2023-12-04T00:23:00;16.40;;;9.90;;
9665;SDS011;4871;52.004;5.924;2023-12-04T00:24:00;16.40;;;9.90;;
9665;SDS011;4871;52.004;5.924;2023-12-04T00:25:00;16.40;;;9.90;;
9665;SDS011;4871;52.004;5.924;2023-12-04T00:26:00;16.40;;;9.90;;
9665;SDS011;4871;52.004;5.924;2023-12-04T00:27:00;16.40;;;9.90;;
9665;SDS011;4871;52.004;5.924;2023-12-04T00:28:00;16.40;;;9.90;;
9665;SDS011;4871;52.004;5.924;2023-12-04T00:29:00;16.40;;;9.90;;
9665;SDS011;4871;52.004;5.924;2023-12-04T00:30:00;16.40;;;9.90;;
9665;SDS011;4871;52.004;5.924;2023-12-04T00:31:00;16.40;;;9.90;;
9665;SDS011;4871;52.004;5.924;2023-12-04T00:32:00;16.40;;;9.90;;
9665;SDS011;4871;52.004;5.924;2023-12-04T00:33:00;16.40;;;9.90;;
9665;SDS011;4871;52.004;5.924;2023-12-04T00:34:00;16.40;;;9.90;;
9665;SDS011;4871;52.004;5.924;2023-12-04T00:35:00;16.40;;;9.90;;
9665;SDS011;4871;52.004;5.924;2023-12-04T00:36:00;16.40;;;9.90;;
9665;SDS011;4871;52.004;5.924;2023-12-04T00:37:00;16.40;;;9.90;;
9665;SDS011;4871;52.004;5.924;2023-12-04T00:38:00;16.40;;;9.90;;
9665;SDS011;4871;52.004;5.924;2023-12-04T00:39:00;16.40;;;9.90;;
9665;SDS011;4871;52.004;5.924;2023-12-04T00:40:00;16.40;;;9.90;;
9665;SDS011;4871;52.004;5.924;2023-12-04T00:41:00;16.40;;;9.90;;
9665;SDS011;4871;52.004;5.924;2023-12-04T00:42:00;16.40;;;9.90;;
9665;SDS011;4871;52.004;5.924;2023-12-04T00:43:00;16.40;;;9.90;;
9665;SDS011;4871;52.004;5.924;2023-12-04T00:44:00;16.40;;;9.90;;
9665;SDS011;4871;52.004;5.924;2023-12-04T00:45:01;16.10;;;10.10;;
9665;SDS011;4871;52.004;5.924;2023-12-04T00:46:00;16.10;;;10.10;;
9665;SDS011;4871;52.004;5.924;2023-12-04T00:47:00;16.10;;;10.10;;
9665;SDS011;4871;52.004;5.924;2023-12-04T00:48:00;16.10;;;10.10;;
9665;SDS011;4871;52.004;5.924;2023-12-04T00:49:00;16.10;;;10.10;;
9665;SDS011;4871;52.004;5.924;2023-12-04T00:50:00;16.10;;;10.10;;
9665;SDS011;4871;52.004;5.924;2023-12-04T00:51:00;16.10;;;10.10;;
9665;SDS011;4871;52.004;5.924;2023-12-04T00:52:00;16.10;;;10.10;;
9665;SDS011;4871;52.004;5.924;2023-12-04T00:53:00;16.10;;;10.10;;
9665;SDS011;4871;52.004;5.924;2023-12-04T00:54:00;16.10;;;10.10;;
9665;SDS011;4871;52.004;5.924;2023-12-04T00:55:00;16.10;;;10.10;;
9665;SDS011;4871;52.004;5.924;2023-12-04T00:56:00;16.10;;;10.10;;
9665;SDS011;4871;52.004;5.924;2023-12-04T00:57:00;16.10;;;10.10;;
9665;SDS011;4871;52.004;5.924;2023-12-04T00:58:00;16.10;;;10.10;;
9665;SDS011;4871;52.004;5.924;2023-12-04T00:59:00;16.10;;;10.10;;
9665;SDS011;4871;52.004;5.924;2023-12-04T01:00:00;16.10;;;10.10;;
9665;SDS011;4871;52.004;5.924;2023-12-04T01:01:00;16.10;;;10.10;;
9665;SDS011;4871;52.004;5.924;2023-12-04T01:02:00;16.10;;;10.10;;
9665;SDS011;4871;52.004;5.924;2023-12-04T01:03:00;16.10;;;10.10;;
9665;SDS011;4871;52.004;5.924;2023-12-04T01:04:00;16.10;;;10.10;;
9665;SDS011;4871;52.004;5.924;2023-12-04T01:05:00;16.10;;;10.10;;
9665;SDS011;4871;52.004;5.924;2023-12-04T01:06:00;16.10;;;10.10;;
9665;SDS011;4871;52.004;5.924;2023-12-04T01:07:00;16.10;;;10.10;;
9665;SDS011;4871;52.004;5.924;2023-12-04T01:08:00;16.10;;;10.10;;
9665;SDS011;4871;52.004;5.924;2023-12-04T01:09:00;16.10;;;10.10;;
9665;SDS011;4871;52.004;5.924;2023-12-04T01:10:00;16.10;;;10.10;;
9665;SDS011;4871;52.004;5.924;2023-12-04T01:11:00;16.10;;;10.10;;
9665;SDS011;4871;52.004;5.924;2023-12-04T01:12:00;16.10;;;10.10;;
9665;SDS011;4871;52.004;5.924;2023-12-04T01:13:00;16.10;;;10.10;;
9665;SDS011;4871;52.004;5.924;2023-12-04T01:14:00;16.10;;;10.10;;
9665;SDS011;4871;52.004;5.924;2023-12-04T01:15:00;18.90;;;10.80;;
9665;SDS011;4871;52.004;5.924;2023-12-04T01:16:00;18.90;;;10.80;;
9665;SDS011;4871;52.004;5.924;2023-12-04T01:17:00;18.90;;;10.80;;
9665;SDS011;4871;52.004;5.924;2023-12-04T01:18:00;18.90;;;10.80;;
9665;SDS011;4871;52.004;5.924;2023-12-04T01:19:00;18.90;;;10.80;;
9665;SDS011;4871;52.004;5.924;2023-12-04T01:20:00;18.90;;;10.80;;
9665;SDS011;4871;52.004;5.924;2023-12-04T01:21:00;18.90;;;10.80;;
9665;SDS011;4871;52.004;5.924;2023-12-04T01:22:00;18.90;;;10.80;;
9665;SDS011;4871;52.004;5.924;2023-12-04T01:23:00;18.90;;;10.80;;
9665;SDS011;4871;52.004;5.924;2023-12-04T01:24:00;18.90;;;10.80;;
9665;SDS011;4871;52.004;5.924;2023-12-04T01:25:00;18.90;;;10.80;;
9665;SDS011;4871;52.004;5.924;2023-12-04T01:26:00;18.90;;;10.80;;
9665;SDS011;4871;52.004;5.924;2023-12-04T01:27:00;18.90;;;10.80;;
9665;SDS011;4871;52.004;5.924;2023-12-04T01:28:00;18.90;;;10.80;;
9665;SDS011;4871;52.004;5.924;2023-12-04T01:29:00;18.90;;;10.80;;
9665;SDS011;4871;52.004;5.924;2023-12-04T01:30:00;18.90;;;10.80;;
9665;SDS011;4871;52.004;5.924;2023-12-04T01:31:00;18.90;;;10.80;;
9665;SDS011;4871;52.004;5.924;2023-12-04T01:32:00;18.90;;;10.80;;
9665;SDS011;4871;52.004;5.924;2023-12-04T01:33:00;18.90;;;10.80;;
9665;SDS011;4871;52.004;5.924;2023-12-04T01:34:00;18.90;;;10.80;;
9665;SDS011;4871;52.004;5.924;2023-12-04T01:35:00;18.90;;;10.80;;
9665;SDS011;4871;52.004;5.924;2023-12-04T01:36:01;18.90;;;10.80;;
9665;SDS011;4871;52.004;5.924;2023-12-04T01:37:00;18.90;;;10.80;;
9665;SDS011;4871;52.004;5.924;2023-12-04T01:38:00;18.90;;;10.80;;
9665;SDS011;4871;52.004;5.924;2023-12-04T01:39:00;18.90;;;10.80;;
9665;SDS011;4871;52.004;5.924;2023-12-04T01:40:00;18.90;;;10.80;;
9665;SDS011;4871;52.004;5.924;2023-12-04T01:41:00;18.90;;;10.80;;
9665;SDS011;4871;52.004;5.924;2023-12-04T01:42:00;18.90;;;10.80;;
9665;SDS011;4871;52.004;5.924;2023-12-04T01:43:00;18.90;;;10.80;;
9665;SDS011;4871;52.004;5.924;2023-12-04T01:44:00;18.90;;;10.80;;
9665;SDS011;4871;52.004;5.924;2023-12-04T01:45:00;17.00;;;10.30;;
9665;SDS011;4871;52.004;5.924;2023-12-04T01:46:00;17.00;;;10.30;;
9665;SDS011;4871;52.004;5.924;2023-12-04T01:47:00;17.00;;;10.30;;
9665;SDS011;4871;52.004;5.924;2023-12-04T01:48:00;17.00;;;10.30;;
9665;SDS011;4871;52.004;5.924;2023-12-04T01:49:00;17.00;;;10.30;;
9665;SDS011;4871;52.004;5.924;2023-12-04T01:50:00;17.00;;;10.30;;
9665;SDS011;4871;52.004;5.924;2023-12-04T01:51:00;17.00;;;10.30;;
9665;SDS011;4871;52.004;5.924;2023-12-04T01:52:00;17.00;;;10.30;;
9665;SDS011;4871;52.004;5.924;2023-12-04T01:53:00;17.00;;;10.30;;
9665;SDS011;4871;52.004;5.924;2023-12-04T01:54:00;17.00;;;10.30;;
9665;SDS011;4871;52.004;5.924;2023-12-04T01:55:00;17.00;;;10.30;;
9665;SDS011;4871;52.004;5.924;2023-12-04T01:56:00;17.00;;;10.30;;
9665;SDS011;4871;52.004;5.924;2023-12-04T01:57:00;17.00;;;10.30;;
9665;SDS011;4871;52.004;5.924;2023-12-04T01:58:00;17.00;;;10.30;;
9665;SDS011;4871;52.004;5.924;2023-12-04T01:59:00;17.00;;;10.30;;
9665;SDS011;4871;52.004;5.924;2023-12-04T02:00:00;17.00;;;10.30;;
9665;SDS011;4871;52.004;5.924;2023-12-04T02:01:00;17.00;;;10.30;;
9665;SDS011;4871;52.004;5.924;2023-12-04T02:02:00;17.00;;;10.30;;
9665;SDS011;4871;52.004;5.924;2023-12-04T02:03:00;17.00;;;10.30;;
9665;SDS011;4871;52.004;5.924;2023-12-04T02:04:01;17.00;;;10.30;;
9665;SDS011;4871;52.004;5.924;2023-12-04T02:05:00;17.00;;;10.30;;
9665;SDS011;4871;52.004;5.924;2023-12-04T02:06:02;17.00;;;10.30;;
9665;SDS011;4871;52.004;5.924;2023-12-04T02:07:00;17.00;;;10.30;;
9665;SDS011;4871;52.004;5.924;2023-12-04T02:08:00;17.00;;;10.30;;
9665;SDS011;4871;52.004;5.924;2023-12-04T02:09:00;17.00;;;10.30;;
9665;SDS011;4871;52.004;5.924;2023-12-04T02:10:00;17.00;;;10.30;;
9665;SDS011;4871;52.004;5.924;2023-12-04T02:11:00;17.00;;;10.30;;
9665;SDS011;4871;52.004;5.924;2023-12-04T02:12:00;17.00;;;10.30;;
9665;SDS011;4871;52.004;5.924;2023-12-04T02:13:00;17.00;;;10.30;;
9665;SDS011;4871;52.004;5.924;2023-12-04T02:14:00;17.00;;;10.30;;
9665;SDS011;4871;52.004;5.924;2023-12-04T02:15:00;18.20;;;11.10;;
9665;SDS011;4871;52.004;5.924;2023-12-04T02:16:01;18.20;;;11.10;;
9665;SDS011;4871;52.004;5.924;2023-12-04T02:17:00;18.20;;;11.10;;
9665;SDS011;4871;52.004;5.924;2023-12-04T02:18:00;18.20;;;11.10;;
9665;SDS011;4871;52.004;5.924;2023-12-04T02:19:00;18.20;;;11.10;;
9665;SDS011;4871;52.004;5.924;2023-12-04T02:20:00;18.20;;;11.10;;
9665;SDS011;4871;52.004;5.924;2023-12-04T02:21:00;18.20;;;11.10;;
9665;SDS011;4871;52.004;5.924;2023-12-04T02:22:00;18.20;;;11.10;;
9665;SDS011;4871;52.004;5.924;2023-12-04T02:23:00;18.20;;;11.10;;
9665;SDS011;4871;52.004;5.924;2023-12-04T02:24:00;18.20;;;11.10;;
9665;SDS011;4871;52.004;5.924;2023-12-04T02:25:00;18.20;;;11.10;;
9665;SDS011;4871;52.004;5.924;2023-12-04T02:26:01;18.20;;;11.10;;
9665;SDS011;4871;52.004;5.924;2023-12-04T02:27:03;18.20;;;11.10;;
9665;SDS011;4871;52.004;5.924;2023-12-04T02:28:01;18.20;;;11.10;;
9665;SDS011;4871;52.004;5.924;2023-12-04T02:29:01;18.20;;;11.10;;
9665;SDS011;4871;52.004;5.924;2023-12-04T02:30:00;18.20;;;11.10;;
9665;SDS011;4871;52.004;5.924;2023-12-04T02:31:00;18.20;;;11.10;;
9665;SDS011;4871;52.004;5.924;2023-12-04T02:32:00;18.20;;;11.10;;
9665;SDS011;4871;52.004;5.924;2023-12-04T02:33:00;18.20;;;11.10;;
9665;SDS011;4871;52.004;5.924;2023-12-04T02:34:00;18.20;;;11.10;;
9665;SDS011;4871;52.004;5.924;2023-12-04T02:35:01;18.20;;;11.10;;
9665;SDS011;4871;52.004;5.924;2023-12-04T02:36:00;18.20;;;11.10;;
9665;SDS011;4871;52.004;5.924;2023-12-04T02:37:00;18.20;;;11.10;;
9665;SDS011;4871;52.004;5.924;2023-12-04T02:38:00;18.20;;;11.10;;
9665;SDS011;4871;52.004;5.924;2023-12-04T02:39:00;18.20;;;11.10;;
9665;SDS011;4871;52.004;5.924;2023-12-04T02:40:00;18.20;;;11.10;;
9665;SDS011;4871;52.004;5.924;2023-12-04T02:41:00;18.20;;;11.10;;
9665;SDS011;4871;52.004;5.924;2023-12-04T02:42:00;18.20;;;11.10;;
9665;SDS011;4871;52.004;5.924;2023-12-04T02:43:00;18.20;;;11.10;;
9665;SDS011;4871;52.004;5.924;2023-12-04T02:44:00;12.90;;;8.80;;
9665;SDS011;4871;52.004;5.924;2023-12-04T02:45:00;12.90;;;8.80;;
9665;SDS011;4871;52.004;5.924;2023-12-04T02:46:00;12.90;;;8.80;;
9665;SDS011;4871;52.004;5.924;2023-12-04T02:47:00;12.90;;;8.80;;
9665;SDS011;4871;52.004;5.924;2023-12-04T02:48:00;12.90;;;8.80;;
9665;SDS011;4871;52.004;5.924;2023-12-04T02:49:00;12.90;;;8.80;;
9665;SDS011;4871;52.004;5.924;2023-12-04T02:50:00;12.90;;;8.80;;
9665;SDS011;4871;52.004;5.924;2023-12-04T02:51:00;12.90;;;8.80;;
9665;SDS011;4871;52.004;5.924;2023-12-04T02:52:00;12.90;;;8.80;;
9665;SDS011;4871;52.004;5.924;2023-12-04T02:53:00;12.90;;;8.80;;
9665;SDS011;4871;52.004;5.924;2023-12-04T02:54:00;12.90;;;8.80;;
9665;SDS011;4871;52.004;5.924;2023-12-04T02:55:00;12.90;;;8.80;;
9665;SDS011;4871;52.004;5.924;2023-12-04T02:56:00;12.90;;;8.80;;
9665;SDS011;4871;52.004;5.924;2023-12-04T02:57:00;12.90;;;8.80;;
9665;SDS011;4871;52.004;5.924;2023-12-04T02:58:00;12.90;;;8.80;;
9665;SDS011;4871;52.004;5.924;2023-12-04T02:59:00;12.90;;;8.80;;
9665;SDS011;4871;52.004;5.924;2023-12-04T03:00:00;12.90;;;8.80;;
9665;SDS011;4871;52.004;5.924;2023-12-04T03:01:00;12.90;;;8.80;;
9665;SDS011;4871;52.004;5.924;2023-12-04T03:02:00;12.90;;;8.80;;
9665;SDS011;4871;52.004;5.924;2023-12-04T03:03:00;12.90;;;8.80;;
9665;SDS011;4871;52.004;5.924;2023-12-04T03:04:00;12.90;;;8.80;;
9665;SDS011;4871;52.004;5.924;2023-12-04T03:05:00;12.90;;;8.80;;
9665;SDS011;4871;52.004;5.924;2023-12-04T03:06:00;12.90;;;8.80;;
9665;SDS011;4871;52.004;5.924;2023-12-04T03:07:00;12.90;;;8.80;;
9665;SDS011;4871;52.004;5.924;2023-12-04T03:08:00;12.90;;;8.80;;
9665;SDS011;4871;52.004;5.924;2023-12-04T03:09:00;12.90;;;8.80;;
9665;SDS011;4871;52.004;5.924;2023-12-04T03:10:00;12.90;;;8.80;;
9665;SDS011;4871;52.004;5.924;2023-12-04T03:11:01;12.90;;;8.80;;
9665;SDS011;4871;52.004;5.924;2023-12-04T03:12:00;12.90;;;8.80;;
9665;SDS011;4871;52.004;5.924;2023-12-04T03:13:00;12.90;;;8.80;;
9665;SDS011;4871;52.004;5.924;2023-12-04T03:14:00;15.30;;;8.70;;
9665;SDS011;4871;52.004;5.924;2023-12-04T03:15:00;15.30;;;8.70;;
9665;SDS011;4871;52.004;5.924;2023-12-04T03:16:00;15.30;;;8.70;;
9665;SDS011;4871;52.004;5.924;2023-12-04T03:17:00;15.30;;;8.70;;
9665;SDS011;4871;52.004;5.924;2023-12-04T03:18:01;15.30;;;8.70;;
9665;SDS011;4871;52.004;5.924;2023-12-04T03:19:00;15.30;;;8.70;;
9665;SDS011;4871;52.004;5.924;2023-12-04T03:20:00;15.30;;;8.70;;
9665;SDS011;4871;52.004;5.924;2023-12-04T03:21:00;15.30;;;8.70;;
9665;SDS011;4871;52.004;5.924;2023-12-04T03:22:00;15.30;;;8.70;;
9665;SDS011;4871;52.004;5.924;2023-12-04T03:23:00;15.30;;;8.70;;
9665;SDS011;4871;52.004;5.924;2023-12-04T03:24:00;15.30;;;8.70;;
9665;SDS011;4871;52.004;5.924;2023-12-04T03:25:00;15.30;;;8.70;;
9665;SDS011;4871;52.004;5.924;2023-12-04T03:26:00;15.30;;;8.70;;
9665;SDS011;4871;52.004;5.924;2023-12-04T03:27:00;15.30;;;8.70;;
9665;SDS011;4871;52.004;5.924;2023-12-04T03:28:00;15.30;;;8.70;;
9665;SDS011;4871;52.004;5.924;2023-12-04T03:29:00;15.30;;;8.70;;
9665;SDS011;4871;52.004;5.924;2023-12-04T03:30:00;15.30;;;8.70;;
9665;SDS011;4871;52.004;5.924;2023-12-04T03:31:00;15.30;;;8.70;;
9665;SDS011;4871;52.004;5.924;2023-12-04T03:32:00;15.30;;;8.70;;
9665;SDS011;4871;52.004;5.924;2023-12-04T03:33:00;15.30;;;8.70;;
9665;SDS011;4871;52.004;5.924;2023-12-04T03:34:00;15.30;;;8.70;;
9665;SDS011;4871;52.004;5.924;2023-12-04T03:35:01;15.30;;;8.70;;
9665;SDS011;4871;52.004;5.924;2023-12-04T03:36:00;15.30;;;8.70;;
9665;SDS011;4871;52.004;5.924;2023-12-04T03:37:00;15.30;;;8.70;;
9665;SDS011;4871;52.004;5.924;2023-12-04T03:38:00;15.30;;;8.70;;
9665;SDS011;4871;52.004;5.924;2023-12-04T03:39:00;15.30;;;8.70;;
9665;SDS011;4871;52.004;5.924;2023-12-04T03:40:00;15.30;;;8.70;;
9665;SDS011;4871;52.004;5.924;2023-12-04T03:41:00;15.30;;;8.70;;
9665;SDS011;4871;52.004;5.924;2023-12-04T03:42:00;15.30;;;8.70;;
9665;SDS011;4871;52.004;5.924;2023-12-04T03:43:00;15.30;;;8.70;;
9665;SDS011;4871;52.004;5.924;2023-12-04T03:44:00;13.50;;;9.30;;
9665;SDS011;4871;52.004;5.924;2023-12-04T03:45:00;13.50;;;9.30;;
9665;SDS011;4871;52.004;5.924;2023-12-04T03:46:00;13.50;;;9.30;;
9665;SDS011;4871;52.004;5.924;2023-12-04T03:47:00;13.50;;;9.30;;
9665;SDS011;4871;52.004;5.924;2023-12-04T03:48:00;13.50;;;9.30;;
9665;SDS011;4871;52.004;5.924;2023-12-04T03:49:00;13.50;;;9.30;;
9665;SDS011;4871;52.004;5.924;2023-12-04T03:50:00;13.50;;;9.30;;
9665;SDS011;4871;52.004;5.924;2023-12-04T03:51:00;13.50;;;9.30;;
9665;SDS011;4871;52.004;5.924;2023-12-04T03:52:00;13.50;;;9.30;;
9665;SDS011;4871;52.004;5.924;2023-12-04T03:53:00;13.50;;;9.30;;
9665;SDS011;4871;52.004;5.924;2023-12-04T03:54:00;13.50;;;9.30;;
9665;SDS011;4871;52.004;5.924;2023-12-04T03:55:00;13.50;;;9.30;;
9665;SDS011;4871;52.004;5.924;2023-12-04T03:56:00;13.50;;;9.30;;
9665;SDS011;4871;52.004;5.924;2023-12-04T03:57:00;13.50;;;9.30;;
9665;SDS011;4871;52.004;5.924;2023-12-04T03:58:00;13.50;;;9.30;;
9665;SDS011;4871;52.004;5.924;2023-12-04T03:59:00;13.50;;;9.30;;
9665;SDS011;4871;52.004;5.924;2023-12-04T04:00:00;13.50;;;9.30;;
9665;SDS011;4871;52.004;5.924;2023-12-04T04:01:00;13.50;;;9.30;;
9665;SDS011;4871;52.004;5.924;2023-12-04T04:02:00;13.50;;;9.30;;
9665;SDS011;4871;52.004;5.924;2023-12-04T04:03:00;13.50;;;9.30;;
9665;SDS011;4871;52.004;5.924;2023-12-04T04:04:00;13.50;;;9.30;;
9665;SDS011;4871;52.004;5.924;2023-12-04T04:05:00;13.50;;;9.30;;
9665;SDS011;4871;52.004;5.924;2023-12-04T04:06:00;13.50;;;9.30;;
9665;SDS011;4871;52.004;5.924;2023-12-04T04:07:00;13.50;;;9.30;;
9665;SDS011;4871;52.004;5.924;2023-12-04T04:08:00;13.50;;;9.30;;
9665;SDS011;4871;52.004;5.924;2023-12-04T04:09:00;13.50;;;9.30;;
9665;SDS011;4871;52.004;5.924;2023-12-04T04:10:00;13.50;;;9.30;;
9665;SDS011;4871;52.004;5.924;2023-12-04T04:11:00;13.50;;;9.30;;
9665;SDS011;4871;52.004;5.924;2023-12-04T04:12:00;13.50;;;9.30;;
9665;SDS011;4871;52.004;5.924;2023-12-04T04:13:00;13.50;;;9.30;;
9665;SDS011;4871;52.004;5.924;2023-12-04T04:14:00;11.20;;;8.10;;
9665;SDS011;4871;52.004;5.924;2023-12-04T04:15:00;11.20;;;8.10;;
9665;SDS011;4871;52.004;5.924;2023-12-04T04:16:00;11.20;;;8.10;;
9665;SDS011;4871;52.004;5.924;2023-12-04T04:17:00;11.20;;;8.10;;
9665;SDS011;4871;52.004;5.924;2023-12-04T04:18:00;11.20;;;8.10;;
9665;SDS011;4871;52.004;5.924;2023-12-04T04:19:00;11.20;;;8.10;;
9665;SDS011;4871;52.004;5.924;2023-12-04T04:20:00;11.20;;;8.10;;
9665;SDS011;4871;52.004;5.924;2023-12-04T04:21:00;11.20;;;8.10;;
9665;SDS011;4871;52.004;5.924;2023-12-04T04:22:00;11.20;;;8.10;;
9665;SDS011;4871;52.004;5.924;2023-12-04T04:23:00;11.20;;;8.10;;
9665;SDS011;4871;52.004;5.924;2023-12-04T04:24:00;11.20;;;8.10;;
9665;SDS011;4871;52.004;5.924;2023-12-04T04:25:00;11.20;;;8.10;;
9665;SDS011;4871;52.004;5.924;2023-12-04T04:26:00;11.20;;;8.10;;
9665;SDS011;4871;52.004;5.924;2023-12-04T04:27:00;11.20;;;8.10;;
9665;SDS011;4871;52.004;5.924;2023-12-04T04:28:00;11.20;;;8.10;;
9665;SDS011;4871;52.004;5.924;2023-12-04T04:29:00;11.20;;;8.10;;
9665;SDS011;4871;52.004;5.924;2023-12-04T04:30:00;11.20;;;8.10;;
9665;SDS011;4871;52.004;5.924;2023-12-04T04:31:00;11.20;;;8.10;;
9665;SDS011;4871;52.004;5.924;2023-12-04T04:32:00;11.20;;;8.10;;
9665;SDS011;4871;52.004;5.924;2023-12-04T04:33:00;11.20;;;8.10;;
9665;SDS011;4871;52.004;5.924;2023-12-04T04:34:00;11.20;;;8.10;;
9665;SDS011;4871;52.004;5.924;2023-12-04T04:35:00;11.20;;;8.10;;
9665;SDS011;4871;52.004;5.924;2023-12-04T04:36:00;11.20;;;8.10;;
9665;SDS011;4871;52.004;5.924;2023-12-04T04:37:00;11.20;;;8.10;;
9665;SDS011;4871;52.004;5.924;2023-12-04T04:38:00;11.20;;;8.10;;
9665;SDS011;4871;52.004;5.924;2023-12-04T04:39:00;11.20;;;8.10;;
9665;SDS011;4871;52.004;5.924;2023-12-04T04:40:00;11.20;;;8.10;;
9665;SDS011;4871;52.004;5.924;2023-12-04T04:41:00;11.20;;;8.10;;
9665;SDS011;4871;52.004;5.924;2023-12-04T04:42:00;11.20;;;8.10;;
9665;SDS011;4871;52.004;5.924;2023-12-04T04:43:00;11.20;;;8.10;;
9665;SDS011;4871;52.004;5.924;2023-12-04T04:44:00;11.00;;;7.80;;
9665;SDS011;4871;52.004;5.924;2023-12-04T04:45:00;11.00;;;7.80;;
9665;SDS011;4871;52.004;5.924;2023-12-04T04:46:00;11.00;;;7.80;;
9665;SDS011;4871;52.004;5.924;2023-12-04T04:47:00;11.00;;;7.80;;
9665;SDS011;4871;52.004;5.924;2023-12-04T04:48:00;11.00;;;7.80;;
9665;SDS011;4871;52.004;5.924;2023-12-04T04:49:00;11.00;;;7.80;;
9665;SDS011;4871;52.004;5.924;2023-12-04T04:50:00;11.00;;;7.80;;
9665;SDS011;4871;52.004;5.924;2023-12-04T04:51:00;11.00;;;7.80;;
9665;SDS011;4871;52.004;5.924;2023-12-04T04:52:00;11.00;;;7.80;;
9665;SDS011;4871;52.004;5.924;2023-12-04T04:53:00;11.00;;;7.80;;
9665;SDS011;4871;52.004;5.924;2023-12-04T04:54:00;11.00;;;7.80;;
9665;SDS011;4871;52.004;5.924;2023-12-04T04:55:00;11.00;;;7.80;;
9665;SDS011;4871;52.004;5.924;2023-12-04T04:56:00;11.00;;;7.80;;
9665;SDS011;4871;52.004;5.924;2023-12-04T04:57:00;11.00;;;7.80;;
9665;SDS011;4871;52.004;5.924;2023-12-04T04:58:00;11.00;;;7.80;;
9665;SDS011;4871;52.004;5.924;2023-12-04T04:59:00;11.00;;;7.80;;
9665;SDS011;4871;52.004;5.924;2023-12-04T05:00:00;11.00;;;7.80;;
9665;SDS011;4871;52.004;5.924;2023-12-04T05:01:00;11.00;;;7.80;;
9665;SDS011;4871;52.004;5.924;2023-12-04T05:02:00;11.00;;;7.80;;
9665;SDS011;4871;52.004;5.924;2023-12-04T05:03:00;11.00;;;7.80;;
9665;SDS011;4871;52.004;5.924;2023-12-04T05:04:00;11.00;;;7.80;;
9665;SDS011;4871;52.004;5.924;2023-12-04T05:05:01;11.00;;;7.80;;
9665;SDS011;4871;52.004;5.924;2023-12-04T05:06:00;11.00;;;7.80;;
9665;SDS011;4871;52.004;5.924;2023-12-04T05:07:00;11.00;;;7.80;;
9665;SDS011;4871;52.004;5.924;2023-12-04T05:08:00;11.00;;;7.80;;
9665;SDS011;4871;52.004;5.924;2023-12-04T05:09:00;11.00;;;7.80;;
9665;SDS011;4871;52.004;5.924;2023-12-04T05:10:00;11.00;;;7.80;;
9665;SDS011;4871;52.004;5.924;2023-12-04T05:11:00;11.00;;;7.80;;
9665;SDS011;4871;52.004;5.924;2023-12-04T05:12:00;11.00;;;7.80;;
9665;SDS011;4871;52.004;5.924;2023-12-04T05:13:00;11.00;;;7.80;;
9665;SDS011;4871;52.004;5.924;2023-12-04T05:14:00;11.00;;;6.70;;
9665;SDS011;4871;52.004;5.924;2023-12-04T05:15:00;11.00;;;6.70;;
9665;SDS011;4871;52.004;5.924;2023-12-04T05:16:00;11.00;;;6.70;;
9665;SDS011;4871;52.004;5.924;2023-12-04T05:17:00;11.00;;;6.70;;
9665;SDS011;4871;52.004;5.924;2023-12-04T05:18:00;11.00;;;6.70;;
9665;SDS011;4871;52.004;5.924;2023-12-04T05:19:00;11.00;;;6.70;;
9665;SDS011;4871;52.004;5.924;2023-12-04T05:20:00;11.00;;;6.70;;
9665;SDS011;4871;52.004;5.924;2023-12-04T05:21:00;11.00;;;6.70;;
9665;SDS011;4871;52.004;5.924;2023-12-04T05:22:00;11.00;;;6.70;;
9665;SDS011;4871;52.004;5.924;2023-12-04T05:23:00;11.00;;;6.70;;
9665;SDS011;4871;52.004;5.924;2023-12-04T05:24:00;11.00;;;6.70;;
9665;SDS011;4871;52.004;5.924;2023-12-04T05:25:00;11.00;;;6.70;;
9665;SDS011;4871;52.004;5.924;2023-12-04T05:26:00;11.00;;;6.70;;
9665;SDS011;4871;52.004;5.924;2023-12-04T05:27:00;11.00;;;6.70;;
9665;SDS011;4871;52.004;5.924;2023-12-04T05:28:00;11.00;;;6.70;;
9665;SDS011;4871;52.004;5.924;2023-12-04T05:29:00;11.00;;;6.70;;
9665;SDS011;4871;52.004;5.924;2023-12-04T05:30:00;11.00;;;6.70;;
9665;SDS011;4871;52.004;5.924;2023-12-04T05:31:00;11.00;;;6.70;;
9665;SDS011;4871;52.004;5.924;2023-12-04T05:32:00;11.00;;;6.70;;
9665;SDS011;4871;52.004;5.924;2023-12-04T05:33:00;11.00;;;6.70;;
9665;SDS011;4871;52.004;5.924;2023-12-04T05:34:00;11.00;;;6.70;;
9665;SDS011;4871;52.004;5.924;2023-12-04T05:35:00;11.00;;;6.70;;
9665;SDS011;4871;52.004;5.924;2023-12-04T05:36:00;11.00;;;6.70;;
9665;SDS011;4871;52.004;5.924;2023-12-04T05:37:00;11.00;;;6.70;;
9665;SDS011;4871;52.004;5.924;2023-12-04T05:38:00;11.00;;;6.70;;
9665;SDS011;4871;52.004;5.924;2023-12-04T05:39:00;11.00;;;6.70;;
9665;SDS011;4871;52.004;5.924;2023-12-04T05:40:00;11.00;;;6.70;;
9665;SDS011;4871;52.004;5.924;2023-12-04T05:41:00;11.00;;;6.70;;
9665;SDS011;4871;52.004;5.924;2023-12-04T05:42:00;11.00;;;6.70;;
9665;SDS011;4871;52.004;5.924;2023-12-04T05:43:00;11.00;;;6.70;;
9665;SDS011;4871;52.004;5.924;2023-12-04T05:44:00;10.70;;;7.60;;
9665;SDS011;4871;52.004;5.924;2023-12-04T05:45:00;10.70;;;7.60;;
9665;SDS011;4871;52.004;5.924;2023-12-04T05:46:00;10.70;;;7.60;;
9665;SDS011;4871;52.004;5.924;2023-12-04T05:47:00;10.70;;;7.60;;
9665;SDS011;4871;52.004;5.924;2023-12-04T05:48:00;10.70;;;7.60;;
9665;SDS011;4871;52.004;5.924;2023-12-04T05:49:00;10.70;;;7.60;;
9665;SDS011;4871;52.004;5.924;2023-12-04T05:50:00;10.70;;;7.60;;
9665;SDS011;4871;52.004;5.924;2023-12-04T05:51:00;10.70;;;7.60;;
9665;SDS011;4871;52.004;5.924;2023-12-04T05:52:00;10.70;;;7.60;;
9665;SDS011;4871;52.004;5.924;2023-12-04T05:53:00;10.70;;;7.60;;
9665;SDS011;4871;52.004;5.924;2023-12-04T05:54:00;10.70;;;7.60;;
9665;SDS011;4871;52.004;5.924;2023-12-04T05:55:00;10.70;;;7.60;;
9665;SDS011;4871;52.004;5.924;2023-12-04T05:56:00;10.70;;;7.60;;
9665;SDS011;4871;52.004;5.924;2023-12-04T05:57:00;10.70;;;7.60;;
9665;SDS011;4871;52.004;5.924;2023-12-04T05:58:00;10.70;;;7.60;;
9665;SDS011;4871;52.004;5.924;2023-12-04T05:59:00;10.70;;;7.60;;
9665;SDS011;4871;52.004;5.924;2023-12-04T06:00:00;10.70;;;7.60;;
9665;SDS011;4871;52.004;5.924;2023-12-04T06:01:00;10.70;;;7.60;;
9665;SDS011;4871;52.004;5.924;2023-12-04T06:02:01;10.70;;;7.60;;
9665;SDS011;4871;52.004;5.924;2023-12-04T06:03:00;10.70;;;7.60;;
9665;SDS011;4871;52.004;5.924;2023-12-04T06:04:00;10.70;;;7.60;;